sensor_id;sensor_type;location;lat;lon;timestamp;pressure;altitude;pressure_sealevel;temperature;humidity
63194;BME280;49289;51.670;5.624;2023-06-24T00:00:17;102553.41;;;27.55;58.60
63194;BME280;49289;51.670;5.624;2023-06-24T00:02:05;102555.36;;;27.53;58.46
63194;BME280;49289;51.670;5.624;2023-06-24T00:03:54;102554.20;;;27.47;58.60
63194;BME280;49289;51.670;5.624;2023-06-24T00:05:42;102549.63;;;27.51;58.14
63194;BME280;49289;51.670;5.624;2023-06-24T00:07:30;102553.01;;;27.48;58.23
63194;BME280;49289;51.670;5.624;2023-06-24T00:09:18;102554.54;;;27.44;58.40
63194;BME280;49289;51.670;5.624;2023-06-24T00:11:05;102545.00;;;27.33;58.58
63194;BME280;49289;51.670;5.624;2023-06-24T00:12:52;102546.36;;;27.32;58.45
63194;BME280;49289;51.670;5.624;2023-06-24T00:14:40;102543.16;;;27.29;58.44
63194;BME280;49289;51.670;5.624;2023-06-24T00:16:29;102546.27;;;27.33;58.69
63194;BME280;49289;51.670;5.624;2023-06-24T00:18:17;102549.06;;;27.30;58.88
63194;BME280;49289;51.670;5.624;2023-06-24T00:20:04;102547.70;;;27.32;59.06
63194;BME280;49289;51.670;5.624;2023-06-24T00:21:52;102528.73;;;27.18;59.02
63194;BME280;49289;51.670;5.624;2023-06-24T00:23:40;102548.81;;;27.26;59.27
63194;BME280;49289;51.670;5.624;2023-06-24T00:25:29;102549.83;;;27.24;58.97
63194;BME280;49289;51.670;5.624;2023-06-24T00:27:17;102551.16;;;27.17;58.91
63194;BME280;49289;51.670;5.624;2023-06-24T00:29:05;102556.21;;;27.20;58.70
63194;BME280;49289;51.670;5.624;2023-06-24T00:30:53;102557.90;;;27.18;59.28
63194;BME280;49289;51.670;5.624;2023-06-24T00:32:41;102557.39;;;27.16;59.47
63194;BME280;49289;51.670;5.624;2023-06-24T00:34:29;102563.64;;;26.81;58.38
63194;BME280;49289;51.670;5.624;2023-06-24T00:36:16;102573.61;;;26.52;57.66
63194;BME280;49289;51.670;5.624;2023-06-24T00:38:05;102573.03;;;26.62;56.78
63194;BME280;49289;51.670;5.624;2023-06-24T00:39:53;102572.13;;;25.93;57.38
63194;BME280;49289;51.670;5.624;2023-06-24T00:41:41;102574.98;;;26.42;58.27
63194;BME280;49289;51.670;5.624;2023-06-24T00:43:29;102580.32;;;26.78;57.70
63194;BME280;49289;51.670;5.624;2023-06-24T00:45:17;102586.17;;;26.87;56.40
63194;BME280;49289;51.670;5.624;2023-06-24T00:47:05;102583.18;;;26.72;56.13
63194;BME280;49289;51.670;5.624;2023-06-24T00:48:54;102582.37;;;26.59;56.49
63194;BME280;49289;51.670;5.624;2023-06-24T00:50:40;102583.61;;;26.74;56.92
63194;BME280;49289;51.670;5.624;2023-06-24T00:52:27;102591.73;;;26.90;56.83
63194;BME280;49289;51.670;5.624;2023-06-24T00:54:16;102587.84;;;27.04;56.71
63194;BME280;49289;51.670;5.624;2023-06-24T00:56:03;102588.50;;;27.08;57.16
63194;BME280;49289;51.670;5.624;2023-06-24T00:57:51;102570.78;;;27.00;57.02
63194;BME280;49289;51.670;5.624;2023-06-24T00:59:37;102592.80;;;27.18;57.09
63194;BME280;49289;51.670;5.624;2023-06-24T01:01:24;102566.45;;;26.97;57.34
63194;BME280;49289;51.670;5.624;2023-06-24T01:03:13;102586.82;;;27.10;57.08
63194;BME280;49289;51.670;5.624;2023-06-24T01:05:01;102580.89;;;27.03;56.77
63194;BME280;49289;51.670;5.624;2023-06-24T01:06:49;102574.83;;;27.00;56.74
63194;BME280;49289;51.670;5.624;2023-06-24T01:08:37;102568.42;;;27.00;56.73
63194;BME280;49289;51.670;5.624;2023-06-24T01:10:24;102544.86;;;26.82;56.72
63194;BME280;49289;51.670;5.624;2023-06-24T01:12:12;102567.47;;;26.91;56.72
63194;BME280;49289;51.670;5.624;2023-06-24T01:13:59;102571.09;;;26.88;56.87
63194;BME280;49289;51.670;5.624;2023-06-24T01:15:46;102570.08;;;26.85;57.26
63194;BME280;49289;51.670;5.624;2023-06-24T01:17:34;102574.92;;;26.71;57.75
63194;BME280;49289;51.670;5.624;2023-06-24T01:19:28;102553.98;;;26.54;57.68
63194;BME280;49289;51.670;5.624;2023-06-24T01:21:17;102550.79;;;26.53;57.66
63194;BME280;49289;51.670;5.624;2023-06-24T01:25:29;102566.54;;;26.57;58.35
63194;BME280;49289;51.670;5.624;2023-06-24T01:27:48;102542.95;;;26.51;58.07
63194;BME280;49289;51.670;5.624;2023-06-24T01:29:42;102534.70;;;26.43;58.13
63194;BME280;49289;51.670;5.624;2023-06-24T01:31:35;102556.10;;;26.59;58.32
63194;BME280;49289;51.670;5.624;2023-06-24T01:33:23;102536.59;;;26.42;58.62
63194;BME280;49289;51.670;5.624;2023-06-24T01:35:12;102556.68;;;26.49;59.24
63194;BME280;49289;51.670;5.624;2023-06-24T01:37:00;102539.66;;;26.34;59.32
63194;BME280;49289;51.670;5.624;2023-06-24T01:38:50;102560.91;;;26.35;59.06
63194;BME280;49289;51.670;5.624;2023-06-24T01:40:37;102559.73;;;26.34;59.03
63194;BME280;49289;51.670;5.624;2023-06-24T01:42:24;102562.48;;;26.32;59.27
63194;BME280;49289;51.670;5.624;2023-06-24T01:44:13;102558.09;;;26.27;59.48
63194;BME280;49289;51.670;5.624;2023-06-24T01:46:00;102556.77;;;26.19;59.60
63194;BME280;49289;51.670;5.624;2023-06-24T01:47:48;102557.41;;;26.09;59.80
63194;BME280;49289;51.670;5.624;2023-06-24T01:49:36;102551.53;;;26.09;59.93
63194;BME280;49289;51.670;5.624;2023-06-24T01:51:22;102550.17;;;26.06;59.72
63194;BME280;49289;51.670;5.624;2023-06-24T01:53:09;102552.39;;;26.00;60.17
63194;BME280;49289;51.670;5.624;2023-06-24T01:54:56;102548.95;;;26.02;60.25
63194;BME280;49289;51.670;5.624;2023-06-24T01:56:45;102549.61;;;25.99;60.22
63194;BME280;49289;51.670;5.624;2023-06-24T01:58:33;102551.30;;;26.02;60.33
63194;BME280;49289;51.670;5.624;2023-06-24T02:00:21;102524.61;;;25.80;60.16
63194;BME280;49289;51.670;5.624;2023-06-24T02:02:08;102556.17;;;25.98;60.44
63194;BME280;49289;51.670;5.624;2023-06-24T02:03:57;102552.09;;;25.89;60.41
63194;BME280;49289;51.670;5.624;2023-06-24T02:05:45;102550.95;;;25.96;60.18
63194;BME280;49289;51.670;5.624;2023-06-24T02:07:33;102546.20;;;25.88;60.03
63194;BME280;49289;51.670;5.624;2023-06-24T02:09:20;102527.34;;;25.71;60.00
63194;BME280;49289;51.670;5.624;2023-06-24T02:11:07;102528.94;;;25.70;60.14
63194;BME280;49289;51.670;5.624;2023-06-24T02:12:54;102552.20;;;25.80;60.16
63194;BME280;49289;51.670;5.624;2023-06-24T02:14:41;102542.83;;;25.73;60.48
63194;BME280;49289;51.670;5.624;2023-06-24T02:16:29;102546.72;;;25.66;60.93
63194;BME280;49289;51.670;5.624;2023-06-24T02:18:18;102542.34;;;25.64;60.86
63194;BME280;49289;51.670;5.624;2023-06-24T02:20:06;102544.53;;;25.66;60.80
63194;BME280;49289;51.670;5.624;2023-06-24T02:21:54;102543.85;;;25.65;61.01
63194;BME280;49289;51.670;5.624;2023-06-24T02:23:42;102548.58;;;25.58;61.04
63194;BME280;49289;51.670;5.624;2023-06-24T02:25:31;102546.03;;;25.54;61.08
63194;BME280;49289;51.670;5.624;2023-06-24T02:27:18;102548.22;;;25.54;60.83
63194;BME280;49289;51.670;5.624;2023-06-24T02:29:05;102550.41;;;25.54;61.22
63194;BME280;49289;51.670;5.624;2023-06-24T02:30:54;102544.34;;;25.42;61.07
63194;BME280;49289;51.670;5.624;2023-06-24T02:32:42;102540.96;;;25.48;61.37
63194;BME280;49289;51.670;5.624;2023-06-24T02:34:29;102522.78;;;25.35;61.46
63194;BME280;49289;51.670;5.624;2023-06-24T02:36:17;102537.99;;;25.43;61.32
63194;BME280;49289;51.670;5.624;2023-06-24T02:38:05;102540.22;;;25.41;61.56
63194;BME280;49289;51.670;5.624;2023-06-24T02:39:53;102538.28;;;25.27;61.67
63194;BME280;49289;51.670;5.624;2023-06-24T02:41:40;102508.48;;;25.09;61.89
63194;BME280;49289;51.670;5.624;2023-06-24T02:43:27;102534.59;;;25.27;61.82
63194;BME280;49289;51.670;5.624;2023-06-24T02:45:15;102514.33;;;25.18;61.63
63194;BME280;49289;51.670;5.624;2023-06-24T02:47:02;102534.25;;;25.19;61.90
63194;BME280;49289;51.670;5.624;2023-06-24T02:48:49;102532.89;;;25.17;61.92
63194;BME280;49289;51.670;5.624;2023-06-24T02:50:36;102531.14;;;25.06;62.33
63194;BME280;49289;51.670;5.624;2023-06-24T02:52:23;102518.39;;;25.02;62.27
63194;BME280;49289;51.670;5.624;2023-06-24T02:54:12;102538.63;;;25.02;62.75
63194;BME280;49289;51.670;5.624;2023-06-24T02:55:59;102529.64;;;24.94;62.95
63194;BME280;49289;51.670;5.624;2023-06-24T02:57:48;102515.28;;;24.78;62.87
63194;BME280;49289;51.670;5.624;2023-06-24T02:59:36;102540.84;;;24.82;63.60
63194;BME280;49289;51.670;5.624;2023-06-24T03:01:23;102544.05;;;24.83;63.73
63194;BME280;49289;51.670;5.624;2023-06-24T03:03:10;102544.12;;;24.81;63.86
63194;BME280;49289;51.670;5.624;2023-06-24T03:04:57;102555.61;;;24.86;63.50
63194;BME280;49289;51.670;5.624;2023-06-24T03:06:44;102558.11;;;24.83;63.75
63194;BME280;49289;51.670;5.624;2023-06-24T03:08:31;102558.41;;;24.89;63.49
63194;BME280;49289;51.670;5.624;2023-06-24T03:10:20;102558.77;;;24.92;63.02
63194;BME280;49289;51.670;5.624;2023-06-24T03:12:07;102557.28;;;25.01;62.47
63194;BME280;49289;51.670;5.624;2023-06-24T03:13:55;102532.33;;;24.84;62.79
63194;BME280;49289;51.670;5.624;2023-06-24T03:15:44;102547.95;;;25.00;63.12
63194;BME280;49289;51.670;5.624;2023-06-24T03:17:32;102548.14;;;24.97;62.81
63194;BME280;49289;51.670;5.624;2023-06-24T03:19:20;102543.26;;;24.96;62.56
63194;BME280;49289;51.670;5.624;2023-06-24T03:21:08;102554.80;;;24.90;62.99
63194;BME280;49289;51.670;5.624;2023-06-24T03:22:55;102553.28;;;24.89;62.91
63194;BME280;49289;51.670;5.624;2023-06-24T03:24:42;102551.67;;;24.81;62.84
63194;BME280;49289;51.670;5.624;2023-06-24T03:26:30;102556.96;;;24.81;62.87
63194;BME280;49289;51.670;5.624;2023-06-24T03:28:16;102552.98;;;24.94;62.22
63194;BME280;49289;51.670;5.624;2023-06-24T03:30:04;102553.33;;;24.85;62.21
63194;BME280;49289;51.670;5.624;2023-06-24T03:31:53;102546.34;;;24.77;62.13
63194;BME280;49289;51.670;5.624;2023-06-24T03:33:41;102553.42;;;24.79;62.28
63194;BME280;49289;51.670;5.624;2023-06-24T03:35:29;102552.95;;;24.73;62.85
63194;BME280;49289;51.670;5.624;2023-06-24T03:37:16;102556.98;;;24.59;63.54
63194;BME280;49289;51.670;5.624;2023-06-24T03:39:05;102555.21;;;24.63;63.26
63194;BME280;49289;51.670;5.624;2023-06-24T03:40:53;102553.98;;;24.62;63.44
63194;BME280;49289;51.670;5.624;2023-06-24T03:42:41;102552.80;;;24.65;63.24
63194;BME280;49289;51.670;5.624;2023-06-24T03:44:28;102532.39;;;24.59;62.92
63194;BME280;49289;51.670;5.624;2023-06-24T03:46:15;102555.17;;;24.62;62.97
63194;BME280;49289;51.670;5.624;2023-06-24T03:48:02;102555.90;;;24.65;62.93
63194;BME280;49289;51.670;5.624;2023-06-24T03:49:49;102551.37;;;24.75;63.09
63194;BME280;49289;51.670;5.624;2023-06-24T03:51:37;102549.42;;;24.73;62.84
63194;BME280;49289;51.670;5.624;2023-06-24T03:53:26;102554.73;;;24.66;63.13
63194;BME280;49289;51.670;5.624;2023-06-24T03:55:14;102553.48;;;24.62;63.74
63194;BME280;49289;51.670;5.624;2023-06-24T03:57:01;102556.56;;;24.59;63.99
63194;BME280;49289;51.670;5.624;2023-06-24T03:58:48;102542.53;;;24.48;63.66
63194;BME280;49289;51.670;5.624;2023-06-24T04:00:35;102562.49;;;24.70;63.36
63194;BME280;49289;51.670;5.624;2023-06-24T04:02:23;102555.06;;;24.51;63.68
63194;BME280;49289;51.670;5.624;2023-06-24T04:04:11;102570.50;;;24.64;63.56
63194;BME280;49289;51.670;5.624;2023-06-24T04:05:59;102573.22;;;24.68;63.45
63194;BME280;49289;51.670;5.624;2023-06-24T04:07:46;102549.34;;;24.59;63.10
63194;BME280;49289;51.670;5.624;2023-06-24T04:09:34;102567.70;;;24.70;63.06
63194;BME280;49289;51.670;5.624;2023-06-24T04:11:21;102546.95;;;24.54;63.12
63194;BME280;49289;51.670;5.624;2023-06-24T04:13:08;102568.24;;;24.65;63.76
63194;BME280;49289;51.670;5.624;2023-06-24T04:14:57;102568.85;;;24.62;63.67
63194;BME280;49289;51.670;5.624;2023-06-24T04:16:45;102562.85;;;24.63;63.54
63194;BME280;49289;51.670;5.624;2023-06-24T04:18:33;102546.48;;;24.64;63.24
63194;BME280;49289;51.670;5.624;2023-06-24T04:20:21;102566.84;;;24.78;62.96
63194;BME280;49289;51.670;5.624;2023-06-24T04:22:09;102565.22;;;24.74;63.32
63194;BME280;49289;51.670;5.624;2023-06-24T04:23:57;102568.76;;;24.75;63.55
63194;BME280;49289;51.670;5.624;2023-06-24T04:25:45;102569.52;;;24.76;63.27
63194;BME280;49289;51.670;5.624;2023-06-24T04:27:32;102568.20;;;24.80;63.02
63194;BME280;49289;51.670;5.624;2023-06-24T04:29:19;102569.95;;;24.77;63.43
63194;BME280;49289;51.670;5.624;2023-06-24T04:31:06;102570.62;;;24.84;63.29
63194;BME280;49289;51.670;5.624;2023-06-24T04:32:55;102569.70;;;24.83;63.07
63194;BME280;49289;51.670;5.624;2023-06-24T04:34:43;102572.37;;;24.91;63.03
63194;BME280;49289;51.670;5.624;2023-06-24T04:36:31;102573.09;;;24.98;62.88
63194;BME280;49289;51.670;5.624;2023-06-24T04:38:19;102543.86;;;24.86;62.76
63194;BME280;49289;51.670;5.624;2023-06-24T04:40:07;102569.13;;;25.02;62.75
63194;BME280;49289;51.670;5.624;2023-06-24T04:41:54;102565.09;;;25.08;62.83
63194;BME280;49289;51.670;5.624;2023-06-24T04:43:41;102567.61;;;25.07;62.76
63194;BME280;49289;51.670;5.624;2023-06-24T04:45:28;102565.52;;;25.20;62.29
63194;BME280;49289;51.670;5.624;2023-06-24T04:47:17;102568.52;;;25.24;62.24
63194;BME280;49289;51.670;5.624;2023-06-24T04:49:06;102572.58;;;25.27;62.21
63194;BME280;49289;51.670;5.624;2023-06-24T04:50:54;102572.05;;;25.25;62.59
63194;BME280;49289;51.670;5.624;2023-06-24T04:52:42;102573.19;;;25.31;62.77
63194;BME280;49289;51.670;5.624;2023-06-24T04:54:30;102565.23;;;25.35;62.33
63194;BME280;49289;51.670;5.624;2023-06-24T04:56:18;102575.73;;;25.35;62.21
63194;BME280;49289;51.670;5.624;2023-06-24T04:58:05;102569.83;;;25.32;62.69
63194;BME280;49289;51.670;5.624;2023-06-24T04:59:52;102569.36;;;25.17;59.70
63194;BME280;49289;51.670;5.624;2023-06-24T05:01:39;102575.11;;;25.51;59.66
63194;BME280;49289;51.670;5.624;2023-06-24T05:03:26;102572.00;;;25.51;59.21
63194;BME280;49289;51.670;5.624;2023-06-24T05:05:15;102573.34;;;25.70;58.75
63194;BME280;49289;51.670;5.624;2023-06-24T05:07:03;102569.50;;;25.75;57.67
63194;BME280;49289;51.670;5.624;2023-06-24T05:08:51;102569.23;;;25.85;58.17
63194;BME280;49289;51.670;5.624;2023-06-24T05:10:38;102552.44;;;25.79;58.60
63194;BME280;49289;51.670;5.624;2023-06-24T05:12:26;102569.25;;;25.88;57.90
63194;BME280;49289;51.670;5.624;2023-06-24T05:14:14;102572.31;;;25.62;53.84
63194;BME280;49289;51.670;5.624;2023-06-24T05:16:03;102569.67;;;25.66;53.00
63194;BME280;49289;51.670;5.624;2023-06-24T05:17:51;102564.13;;;25.91;51.91
63194;BME280;49289;51.670;5.624;2023-06-24T05:19:39;102564.81;;;25.93;51.43
63194;BME280;49289;51.670;5.624;2023-06-24T05:21:26;102567.00;;;25.59;51.58
63194;BME280;49289;51.670;5.624;2023-06-24T05:23:13;102562.00;;;25.83;51.09
63194;BME280;49289;51.670;5.624;2023-06-24T05:25:00;102564.47;;;25.90;51.11
63194;BME280;49289;51.670;5.624;2023-06-24T05:26:48;102566.67;;;25.93;51.09
63194;BME280;49289;51.670;5.624;2023-06-24T05:28:34;102573.57;;;25.94;51.48
63194;BME280;49289;51.670;5.624;2023-06-24T05:30:23;102571.92;;;26.17;51.37
63194;BME280;49289;51.670;5.624;2023-06-24T05:32:11;102573.23;;;26.28;50.64
63194;BME280;49289;51.670;5.624;2023-06-24T05:33:59;102572.17;;;26.17;50.70
63194;BME280;49289;51.670;5.624;2023-06-24T05:35:46;102574.53;;;26.19;51.34
63194;BME280;49289;51.670;5.624;2023-06-24T05:37:33;102576.19;;;26.27;51.05
63194;BME280;49289;51.670;5.624;2023-06-24T05:39:22;102573.05;;;26.36;50.45
63194;BME280;49289;51.670;5.624;2023-06-24T05:41:10;102574.67;;;26.28;50.81
63194;BME280;49289;51.670;5.624;2023-06-24T05:42:57;102545.19;;;25.85;51.16
63194;BME280;49289;51.670;5.624;2023-06-24T05:44:44;102572.94;;;26.22;51.18
63194;BME280;49289;51.670;5.624;2023-06-24T05:46:31;102573.56;;;26.24;50.83
63194;BME280;49289;51.670;5.624;2023-06-24T05:48:18;102580.48;;;26.12;50.86
63194;BME280;49289;51.670;5.624;2023-06-24T05:50:07;102577.53;;;25.41;51.79
63194;BME280;49289;51.670;5.624;2023-06-24T05:51:55;102557.14;;;25.12;52.62
63194;BME280;49289;51.670;5.624;2023-06-24T05:53:43;102577.55;;;25.30;53.43
63194;BME280;49289;51.670;5.624;2023-06-24T05:55:31;102581.20;;;25.43;52.92
63194;BME280;49289;51.670;5.624;2023-06-24T05:57:18;102582.53;;;25.34;52.89
63194;BME280;49289;51.670;5.624;2023-06-24T05:59:05;102583.02;;;26.01;52.30
63194;BME280;49289;51.670;5.624;2023-06-24T06:00:54;102580.67;;;26.19;51.93
63194;BME280;49289;51.670;5.624;2023-06-24T06:02:42;102577.05;;;26.18;51.37
63194;BME280;49289;51.670;5.624;2023-06-24T06:04:30;102565.39;;;26.39;50.63
63194;BME280;49289;51.670;5.624;2023-06-24T06:06:18;102578.69;;;26.39;50.16
63194;BME280;49289;51.670;5.624;2023-06-24T06:08:05;102575.22;;;26.56;49.88
63194;BME280;49289;51.670;5.624;2023-06-24T06:09:52;102574.84;;;26.72;49.93
63194;BME280;49289;51.670;5.624;2023-06-24T06:11:39;102570.75;;;26.55;49.51
63194;BME280;49289;51.670;5.624;2023-06-24T06:13:26;102577.53;;;26.26;49.85
63194;BME280;49289;51.670;5.624;2023-06-24T06:15:14;102575.34;;;26.70;49.56
63194;BME280;49289;51.670;5.624;2023-06-24T06:17:02;102579.17;;;26.92;50.15
63194;BME280;49289;51.670;5.624;2023-06-24T06:18:50;102582.85;;;26.33;49.23
63194;BME280;49289;51.670;5.624;2023-06-24T06:20:38;102586.17;;;25.60;51.35
63194;BME280;49289;51.670;5.624;2023-06-24T06:22:27;102579.81;;;25.99;50.62
63194;BME280;49289;51.670;5.624;2023-06-24T06:24:15;102581.80;;;26.05;50.16
63194;BME280;49289;51.670;5.624;2023-06-24T06:26:03;102583.02;;;26.44;50.13
63194;BME280;49289;51.670;5.624;2023-06-24T06:27:50;102579.84;;;26.23;50.46
63194;BME280;49289;51.670;5.624;2023-06-24T06:29:37;102565.47;;;26.42;49.52
63194;BME280;49289;51.670;5.624;2023-06-24T06:31:25;102579.28;;;26.42;50.22
63194;BME280;49289;51.670;5.624;2023-06-24T06:33:14;102567.20;;;26.34;49.04
63194;BME280;49289;51.670;5.624;2023-06-24T06:35:02;102588.41;;;26.80;49.31
63194;BME280;49289;51.670;5.624;2023-06-24T06:36:50;102582.37;;;26.95;48.28
63194;BME280;49289;51.670;5.624;2023-06-24T06:38:38;102587.82;;;27.21;47.22
63194;BME280;49289;51.670;5.624;2023-06-24T06:40:26;102582.77;;;26.82;45.94
63194;BME280;49289;51.670;5.624;2023-06-24T06:42:13;102590.12;;;26.57;46.52
63194;BME280;49289;51.670;5.624;2023-06-24T06:44:00;102588.39;;;26.29;45.80
63194;BME280;49289;51.670;5.624;2023-06-24T06:45:48;102579.50;;;26.54;45.76
63194;BME280;49289;51.670;5.624;2023-06-24T06:47:37;102569.54;;;26.82;46.25
63194;BME280;49289;51.670;5.624;2023-06-24T06:49:25;102582.68;;;27.21;45.18
63194;BME280;49289;51.670;5.624;2023-06-24T06:51:13;102566.88;;;26.86;44.02
63194;BME280;49289;51.670;5.624;2023-06-24T06:53:00;102594.47;;;26.67;44.62
63194;BME280;49289;51.670;5.624;2023-06-24T06:54:47;102599.27;;;26.44;44.90
63194;BME280;49289;51.670;5.624;2023-06-24T06:56:36;102598.09;;;26.33;46.19
63194;BME280;49289;51.670;5.624;2023-06-24T06:58:24;102597.45;;;26.37;45.13
63194;BME280;49289;51.670;5.624;2023-06-24T07:00:12;102602.74;;;26.52;45.83
63194;BME280;49289;51.670;5.624;2023-06-24T07:02:00;102582.85;;;26.80;44.97
63194;BME280;49289;51.670;5.624;2023-06-24T07:03:48;102607.56;;;26.37;45.54
63194;BME280;49289;51.670;5.624;2023-06-24T07:05:34;102607.74;;;26.97;45.12
63194;BME280;49289;51.670;5.624;2023-06-24T07:07:21;102613.80;;;27.41;44.76
63194;BME280;49289;51.670;5.624;2023-06-24T07:09:10;102615.15;;;27.56;44.68
63194;BME280;49289;51.670;5.624;2023-06-24T07:10:58;102592.32;;;26.83;44.95
63194;BME280;49289;51.670;5.624;2023-06-24T07:12:46;102598.53;;;27.17;44.18
63194;BME280;49289;51.670;5.624;2023-06-24T07:14:33;102617.09;;;27.36;43.75
63194;BME280;49289;51.670;5.624;2023-06-24T07:16:20;102614.31;;;27.31;44.28
63194;BME280;49289;51.670;5.624;2023-06-24T07:18:08;102625.27;;;26.31;45.33
63194;BME280;49289;51.670;5.624;2023-06-24T07:19:55;102614.55;;;26.62;46.16
63194;BME280;49289;51.670;5.624;2023-06-24T07:21:43;102621.00;;;26.70;44.75
63194;BME280;49289;51.670;5.624;2023-06-24T07:23:31;102613.09;;;27.02;44.12
63194;BME280;49289;51.670;5.624;2023-06-24T07:25:19;102615.81;;;26.37;44.33
63194;BME280;49289;51.670;5.624;2023-06-24T07:27:06;102613.47;;;26.85;44.22
63194;BME280;49289;51.670;5.624;2023-06-24T07:28:56;102617.52;;;27.37;44.18
63194;BME280;49289;51.670;5.624;2023-06-24T07:30:42;102619.45;;;27.38;42.92
63194;BME280;49289;51.670;5.624;2023-06-24T07:32:30;102618.34;;;27.41;42.81
63194;BME280;49289;51.670;5.624;2023-06-24T07:34:18;102615.84;;;27.44;43.79
63194;BME280;49289;51.670;5.624;2023-06-24T07:36:05;102617.31;;;27.96;43.24
63194;BME280;49289;51.670;5.624;2023-06-24T07:37:52;102617.78;;;28.14;43.61
63194;BME280;49289;51.670;5.624;2023-06-24T07:39:39;102621.83;;;27.43;43.66
63194;BME280;49289;51.670;5.624;2023-06-24T07:41:26;102620.80;;;27.81;42.71
63194;BME280;49289;51.670;5.624;2023-06-24T07:43:13;102624.32;;;27.23;42.76
63194;BME280;49289;51.670;5.624;2023-06-24T07:45:00;102623.02;;;27.44;42.58
63194;BME280;49289;51.670;5.624;2023-06-24T07:46:47;102620.98;;;27.47;42.88
63194;BME280;49289;51.670;5.624;2023-06-24T07:48:36;102615.06;;;27.55;42.59
63194;BME280;49289;51.670;5.624;2023-06-24T07:50:24;102598.21;;;27.74;43.07
63194;BME280;49289;51.670;5.624;2023-06-24T07:52:11;102614.09;;;28.08;41.91
63194;BME280;49289;51.670;5.624;2023-06-24T07:53:58;102612.79;;;27.55;42.36
63194;BME280;49289;51.670;5.624;2023-06-24T07:55:47;102616.96;;;28.08;41.99
63194;BME280;49289;51.670;5.624;2023-06-24T07:57:35;102618.23;;;27.98;41.60
63194;BME280;49289;51.670;5.624;2023-06-24T07:59:23;102618.28;;;27.76;41.99
63194;BME280;49289;51.670;5.624;2023-06-24T08:01:10;102597.05;;;27.98;41.67
63194;BME280;49289;51.670;5.624;2023-06-24T08:02:57;102617.00;;;28.31;41.32
63194;BME280;49289;51.670;5.624;2023-06-24T08:04:44;102613.91;;;28.10;41.03
63194;BME280;49289;51.670;5.624;2023-06-24T08:06:32;102611.72;;;28.74;40.98
63194;BME280;49289;51.670;5.624;2023-06-24T08:08:21;102614.48;;;28.79;40.10
63194;BME280;49289;51.670;5.624;2023-06-24T08:10:09;102593.86;;;28.87;39.76
63194;BME280;49289;51.670;5.624;2023-06-24T08:11:56;102607.20;;;29.20;39.01
63194;BME280;49289;51.670;5.624;2023-06-24T08:13:45;102582.98;;;29.27;38.78
63194;BME280;49289;51.670;5.624;2023-06-24T08:15:33;102604.96;;;29.03;38.71
63194;BME280;49289;51.670;5.624;2023-06-24T08:17:21;102383.05;;;27.32;38.46
63194;BME280;49289;51.670;5.624;2023-06-24T08:19:08;102596.05;;;28.84;39.42
63194;BME280;49289;51.670;5.624;2023-06-24T08:20:55;102602.26;;;29.16;39.72
63194;BME280;49289;51.670;5.624;2023-06-24T08:22:42;102598.52;;;29.30;39.65
63194;BME280;49289;51.670;5.624;2023-06-24T08:24:29;102582.44;;;28.87;39.02
63194;BME280;49289;51.670;5.624;2023-06-24T08:26:16;102599.67;;;29.33;37.95
63194;BME280;49289;51.670;5.624;2023-06-24T08:28:04;102596.23;;;29.88;39.46
63194;BME280;49289;51.670;5.624;2023-06-24T08:29:53;102596.00;;;30.04;37.81
63194;BME280;49289;51.670;5.624;2023-06-24T08:31:41;102596.11;;;29.81;35.54
63194;BME280;49289;51.670;5.624;2023-06-24T08:33:29;102590.91;;;29.52;36.07
63194;BME280;49289;51.670;5.624;2023-06-24T08:35:18;102592.98;;;29.74;35.57
63194;BME280;49289;51.670;5.624;2023-06-24T08:37:05;102583.92;;;29.43;35.07
63194;BME280;49289;51.670;5.624;2023-06-24T08:38:52;102585.81;;;29.40;35.71
63194;BME280;49289;51.670;5.624;2023-06-24T08:40:39;102591.81;;;29.79;35.84
63194;BME280;49289;51.670;5.624;2023-06-24T08:42:26;102586.95;;;29.58;34.76
63194;BME280;49289;51.670;5.624;2023-06-24T08:44:15;102588.54;;;29.99;35.47
63194;BME280;49289;51.670;5.624;2023-06-24T08:46:03;102585.71;;;30.07;35.73
63194;BME280;49289;51.670;5.624;2023-06-24T08:47:53;102564.73;;;30.17;35.08
63194;BME280;49289;51.670;5.624;2023-06-24T08:49:42;102575.77;;;30.09;35.02
63194;BME280;49289;51.670;5.624;2023-06-24T08:51:27;102580.07;;;30.17;35.56
63194;BME280;49289;51.670;5.624;2023-06-24T08:53:15;102575.75;;;30.04;34.34
63194;BME280;49289;51.670;5.624;2023-06-24T08:55:03;102576.88;;;30.41;36.44
63194;BME280;49289;51.670;5.624;2023-06-24T08:56:50;102578.73;;;30.60;35.70
63194;BME280;49289;51.670;5.624;2023-06-24T08:58:37;102579.24;;;30.64;36.53
63194;BME280;49289;51.670;5.624;2023-06-24T09:00:25;102579.29;;;30.71;34.50
63194;BME280;49289;51.670;5.624;2023-06-24T09:02:13;102576.34;;;30.63;34.07
63194;BME280;49289;51.670;5.624;2023-06-24T09:04:00;102580.41;;;30.51;34.31
63194;BME280;49289;51.670;5.624;2023-06-24T09:05:49;102554.83;;;30.50;34.46
63194;BME280;49289;51.670;5.624;2023-06-24T09:07:39;102575.48;;;30.17;32.74
63194;BME280;49289;51.670;5.624;2023-06-24T09:09:30;102571.66;;;30.67;33.35
63194;BME280;49289;51.670;5.624;2023-06-24T09:11:21;102571.02;;;30.62;32.70
63194;BME280;49289;51.670;5.624;2023-06-24T09:13:07;102568.16;;;30.90;32.82
63194;BME280;49289;51.670;5.624;2023-06-24T09:14:55;102569.02;;;30.99;32.72
63194;BME280;49289;51.670;5.624;2023-06-24T09:16:44;102565.67;;;31.34;34.10
63194;BME280;49289;51.670;5.624;2023-06-24T09:18:35;102567.81;;;31.60;34.02
63194;BME280;49289;51.670;5.624;2023-06-24T09:20:25;102554.84;;;31.41;31.80
63194;BME280;49289;51.670;5.624;2023-06-24T09:22:13;102556.88;;;30.35;31.22
63194;BME280;49289;51.670;5.624;2023-06-24T09:24:03;102573.05;;;30.43;31.98
63194;BME280;49289;51.670;5.624;2023-06-24T09:25:50;102571.47;;;30.85;31.67